Pagrindinis puslapis
METAR-TAF:

METAR-TAF

Oro uostai :

Charbinas, Kinija

platuma: 45-45N, ilguma: 126-46E, Aukštis: 143 m

Dabartinis oras

Ataskaita buvo paskelbta 21 minutes, ne 16:00 UTC
Vėjas 8 kt iš Pietų
Temperatūra -12°C
Drėgmė 72%
Slėgis 1023 hPa
Matomumas 10 km arba daugiau
nėra debesų žemiau 1500 m ir nėra kamuolinių lietaus debesų

METAR: ZYHB 071600Z 19004MPS CAVOK M12/M16 Q1023 NOSIG

Laikas: 00:21 (16:21 UTC)

Prognozė

Ataskaita buvo paskelbta 7 valandos ir 7 minutes, ne 09:14 UTC
Prognozė galioja nuo 07 metu 12 UTC su 08 metu 12 UTC
Vėjas 8 kt iš Pietų
Matomumas: 6000 m
Mažai debesys ne aukštis 3300 ft

TAF: ZYHB 070914Z 0712/0812 19004MPS 6000 FEW033 TXM05/06Z TNM18/22Z

Orai ataskaitas ir orų prognozės (METAR, TAF).

turimą stotys yra geltonos ir raudonos taškus žemėlapyje.

Perkelti pele per norėdami pamatyti stoties vardą.

Tada spustelėkite, norėdami matyti oro stebėjimo ir prognozės.

Norėdami pakeisti žemėlapį: spustelėkite ant žalios mygtukų su juodo kryžiaus žemyn,; žalią mygtuką su brūkšneliu, jei norite nutolinti; arba žalių rodyklių gretimoms žemėlapius.


METAR-TAF: